Time;durP1;ratioP1;P1;durP2;ratioP2;P2;SDS_P1;SDS_P2;PMS_P1;PMS_P2;Temp;Humidity;BMP_temperature;BMP_pressure;BME280_temperature;BME280_humidity;BME280_pressure;Samples;Min_cycle;Max_cycle;Signal;HPM_P1;HPM_P2
2024/04/05 00:02:00;;;;;;;;;;;;;;;;;;5090218;28;19915;-60
2024/04/05 00:04:25;;;;;;;;;;;;;;;;;;5093427;28;19917;-60
2024/04/05 00:06:50;;;;;;;;;;;;;;;;;;5088942;28;19915;-60
2024/04/05 00:09:15;;;;;;;;;;;;;;;;;;5093288;28;19912;-61
2024/04/05 00:11:40;;;;;;;;;;;;;;;;;;5092975;28;19916;-61
2024/04/05 00:14:05;;;;;;;;;;;;;;;;;;5087281;28;19913;-60
2024/04/05 00:16:30;;;;;;;;;;;;;;;;;;5074242;28;20357;-60
2024/04/05 00:18:56;;;;;;;;;;;;;;;;;;5074857;28;20323;-60
2024/04/05 00:21:21;;;;;;;;;;;;;;;;;;5092570;28;19912;-60
2024/04/05 00:23:48;;;;;;;;;;;;;;;;;;5075363;28;19983;-60
2024/04/05 00:26:13;;;;;;;;;;;;;;;;;;5092508;28;19924;-60
2024/04/05 00:28:38;;;;;;;;;;;;;;;;;;5083334;28;19913;-60
2024/04/05 00:31:04;;;;;;;;;;;;;;;;;;5073493;28;19912;-60
2024/04/05 00:33:29;;;;;;;;;;;;;;;;;;5079585;28;19916;-60
2024/04/05 00:35:55;;;;;;;;;;;;;;;;;;5074136;28;19908;-60
2024/04/05 00:38:20;;;;;;;;;;;;;;;;;;5092714;28;19912;-60
2024/04/05 00:40:45;;;;;;;;;;;;;;;;;;5092429;28;19950;-61
2024/04/05 00:43:10;;;;;;;;;;;;;;;;;;5092405;28;19916;-60
2024/04/05 00:45:35;;;;;;;;;;;;;;;;;;5080128;28;19935;-60
2024/04/05 00:48:00;;;;;;;;;;;;;;;;;;5077822;28;19908;-64
2024/04/05 00:50:30;;;;;;;;;;;;;;;;;;5092310;28;20403;-63
2024/04/05 00:52:55;;;;;;;;;;;;;;;;;;5090260;28;19915;-63
2024/04/05 00:55:20;;;;;;;;;;;;;;;;;;5092354;28;19908;-64
2024/04/05 00:57:45;;;;;;;;;;;;;;;;;;5092154;28;20038;-63
2024/04/05 01:00:12;;;;;;;;;;;;;;;;;;5091894;28;19908;-63
2024/04/05 01:02:38;;;;;;;;;;;;;;;;;;5091338;28;19908;-64
2024/04/05 01:05:03;;;;;;;;;;;;;;;;;;5091266;28;19997;-63
2024/04/05 01:07:28;;;;;;;;;;;;;;;;;;5091678;28;19912;-63
2024/04/05 01:09:54;;;;;;;;;;;;;;;;;;5091607;28;19920;-63
2024/04/05 01:12:19;;;;;;;;;;;;;;;;;;5092309;28;19916;-63
2024/04/05 01:14:44;;;;;;;;;;;;;;;;;;5091529;28;19908;-63
2024/04/05 01:17:09;;;;;;;;;;;;;;;;;;5091497;28;19995;-63
2024/04/05 01:19:34;;;;;;;;;;;;;;;;;;5085736;28;19912;-63
2024/04/05 01:21:59;;;;;;;;;;;;;;;;;;5083800;28;19920;-63
2024/04/05 01:24:24;;;;;;;;;;;;;;;;;;5072865;28;19909;-63
2024/04/05 01:26:52;;;;;;;;;;;;;;;;;;5080115;28;19908;-63
2024/04/05 01:29:17;;;;;;;;;;;;;;;;;;5078838;28;20011;-63
2024/04/05 01:31:42;;;;;;;;;;;;;;;;;;5074864;28;19995;-63
2024/04/05 01:34:07;;;;;;;;;;;;;;;;;;5074980;28;19913;-64
2024/04/05 01:36:32;;;;;;;;;;;;;;;;;;5072257;28;19912;-64
2024/04/05 01:38:57;;;;;;;;;;;;;;;;;;5089346;28;19916;-64
2024/04/05 01:41:22;;;;;;;;;;;;;;;;;;5091182;28;20016;-64
2024/04/05 01:43:47;;;;;;;;;;;;;;;;;;5091815;28;19908;-64
2024/04/05 01:46:13;;;;;;;;;;;;;;;;;;5089192;28;19908;-64
2024/04/05 01:48:38;;;;;;;;;;;;;;;;;;5092402;28;19908;-64
2024/04/05 01:51:03;;;;;;;;;;;;;;;;;;5092232;28;20288;-64
2024/04/05 01:53:28;;;;;;;;;;;;;;;;;;5092239;28;20272;-64
2024/04/05 01:55:53;;;;;;;;;;;;;;;;;;5092440;28;19939;-64
2024/04/05 01:58:18;;;;;;;;;;;;;;;;;;5090484;28;19987;-60
2024/04/05 02:00:43;;;;;;;;;;;;;;;;;;5091853;28;20008;-60
2024/04/05 02:03:08;;;;;;;;;;;;;;;;;;5092311;28;19919;-60
2024/04/05 02:05:33;;;;;;;;;;;;;;;;;;5092198;28;19915;-61
2024/04/05 02:07:59;;;;;;;;;;;;;;;;;;5091822;28;19919;-60
2024/04/05 02:10:24;;;;;;;;;;;;;;;;;;5092167;28;20253;-61
2024/04/05 02:12:49;;;;;;;;;;;;;;;;;;5091869;28;20365;-61
2024/04/05 02:15:14;;;;;;;;;;;;;;;;;;5088277;28;20366;-61
2024/04/05 02:17:39;;;;;;;;;;;;;;;;;;5071616;28;20280;-61
2024/04/05 02:20:07;;;;;;;;;;;;;;;;;;5071871;28;19912;-61
2024/04/05 02:22:33;;;;;;;;;;;;;;;;;;5083906;28;20276;-60
2024/04/05 02:24:59;;;;;;;;;;;;;;;;;;5091597;28;19912;-61
2024/04/05 02:27:24;;;;;;;;;;;;;;;;;;5092065;28;19908;-60
2024/04/05 02:29:49;;;;;;;;;;;;;;;;;;5092011;28;20590;-60
2024/04/05 02:32:14;;;;;;;;;;;;;;;;;;5091824;28;19912;-61
2024/04/05 02:34:39;;;;;;;;;;;;;;;;;;5091993;28;20371;-61
2024/04/05 02:37:04;;;;;;;;;;;;;;;;;;5091698;28;19908;-61
2024/04/05 02:39:30;;;;;;;;;;;;;;;;;;5091359;28;19912;-61
2024/04/05 02:41:55;;;;;;;;;;;;;;;;;;5091436;28;19942;-62
2024/04/05 02:44:24;;;;;;;;;;;;;;;;;;5091439;28;19909;-61
2024/04/05 02:46:49;;;;;;;;;;;;;;;;;;5090132;28;19912;-61
2024/04/05 02:49:15;;;;;;;;;;;;;;;;;;5091809;28;19918;-60
2024/04/05 02:51:40;;;;;;;;;;;;;;;;;;5084977;28;19959;-61
2024/04/05 02:54:06;;;;;;;;;;;;;;;;;;5083152;28;19923;-62
2024/04/05 02:56:31;;;;;;;;;;;;;;;;;;5091435;28;19943;-61
2024/04/05 02:58:56;;;;;;;;;;;;;;;;;;5091691;28;19954;-61
2024/04/05 03:01:22;;;;;;;;;;;;;;;;;;5091383;28;19912;-61
2024/04/05 03:03:47;;;;;;;;;;;;;;;;;;5091253;28;19957;-61
2024/04/05 03:06:12;;;;;;;;;;;;;;;;;;5091089;28;19961;-61
2024/04/05 03:08:37;;;;;;;;;;;;;;;;;;5091298;28;19918;-61
2024/04/05 03:11:02;;;;;;;;;;;;;;;;;;5091609;28;19908;-61
2024/04/05 03:13:27;;;;;;;;;;;;;;;;;;5091157;28;19908;-61
2024/04/05 03:15:53;;;;;;;;;;;;;;;;;;5091494;28;19909;-62
2024/04/05 03:18:18;;;;;;;;;;;;;;;;;;5089923;28;19908;-61
2024/04/05 03:20:43;;;;;;;;;;;;;;;;;;5091049;28;20387;-61
2024/04/05 03:23:10;;;;;;;;;;;;;;;;;;5091401;28;20557;-61
2024/04/05 03:25:35;;;;;;;;;;;;;;;;;;5090396;28;19912;-62
2024/04/05 03:28:00;;;;;;;;;;;;;;;;;;5088980;28;20577;-61
2024/04/05 03:30:25;;;;;;;;;;;;;;;;;;5095045;28;19920;-61
2024/04/05 03:32:51;;;;;;;;;;;;;;;;;;5094980;28;19908;-61
2024/04/05 03:35:16;;;;;;;;;;;;;;;;;;5094750;28;20365;-61
2024/04/05 03:37:41;;;;;;;;;;;;;;;;;;5094607;28;19908;-61
2024/04/05 03:40:06;;;;;;;;;;;;;;;;;;5094140;28;19973;-61
2024/04/05 03:42:31;;;;;;;;;;;;;;;;;;5086070;28;19948;-61
2024/04/05 03:44:57;;;;;;;;;;;;;;;;;;5093442;28;19912;-61
2024/04/05 03:47:22;;;;;;;;;;;;;;;;;;5094412;28;19908;-61
2024/04/05 03:49:47;;;;;;;;;;;;;;;;;;5094440;28;19916;-60
2024/04/05 03:52:12;;;;;;;;;;;;;;;;;;5094628;28;20291;-62
2024/04/05 03:54:37;;;;;;;;;;;;;;;;;;5094373;28;19963;-61
2024/04/05 03:57:03;;;;;;;;;;;;;;;;;;5092927;28;19908;-61
2024/04/05 03:59:28;;;;;;;;;;;;;;;;;;5094718;28;19915;-61
2024/04/05 04:01:53;;;;;;;;;;;;;;;;;;5087174;28;19913;-61
2024/04/05 04:04:18;;;;;;;;;;;;;;;;;;5086337;28;19912;-61
2024/04/05 04:06:44;;;;;;;;;;;;;;;;;;5079286;28;19908;-61
2024/04/05 04:09:11;;;;;;;;;;;;;;;;;;5074098;28;19917;-62
2024/04/05 04:11:36;;;;;;;;;;;;;;;;;;5094172;28;19912;-61
2024/04/05 04:14:01;;;;;;;;;;;;;;;;;;5094004;28;20371;-61
2024/04/05 04:16:26;;;;;;;;;;;;;;;;;;5089839;28;20003;-60
2024/04/05 04:18:51;;;;;;;;;;;;;;;;;;5074104;28;19908;-64
2024/04/05 04:21:16;;;;;;;;;;;;;;;;;;5075319;28;19912;-64
2024/04/05 04:23:41;;;;;;;;;;;;;;;;;;5092150;28;19912;-64
2024/04/05 04:26:06;;;;;;;;;;;;;;;;;;5088013;28;20416;-64
2024/04/05 04:28:35;;;;;;;;;;;;;;;;;;5076663;28;20581;-65
2024/04/05 04:31:00;;;;;;;;;;;;;;;;;;5073575;28;20395;-64
2024/04/05 04:33:25;;;;;;;;;;;;;;;;;;5073488;28;20511;-64
2024/04/05 04:35:50;;;;;;;;;;;;;;;;;;5073495;28;20292;-65
2024/04/05 04:38:15;;;;;;;;;;;;;;;;;;5091322;28;19912;-64
2024/04/05 04:40:40;;;;;;;;;;;;;;;;;;5093028;28;20349;-64
2024/04/05 04:43:06;;;;;;;;;;;;;;;;;;5084792;28;20396;-64
2024/04/05 04:45:31;;;;;;;;;;;;;;;;;;5090725;28;20353;-64
2024/04/05 04:47:56;;;;;;;;;;;;;;;;;;5089404;28;19928;-64
2024/04/05 04:50:21;;;;;;;;;;;;;;;;;;5076833;28;20042;-65
2024/04/05 04:52:46;;;;;;;;;;;;;;;;;;5093045;28;19961;-64
2024/04/05 04:55:11;;;;;;;;;;;;;;;;;;5092978;28;19908;-64
2024/04/05 04:57:37;;;;;;;;;;;;;;;;;;5093409;28;19916;-64
2024/04/05 05:00:02;;;;;;;;;;;;;;;;;;5086627;28;20373;-64
2024/04/05 05:02:28;;;;;;;;;;;;;;;;;;5087270;28;19966;-64
2024/04/05 05:04:53;;;;;;;;;;;;;;;;;;5093231;28;19919;-64
2024/04/05 05:07:18;;;;;;;;;;;;;;;;;;5093272;28;19908;-64
2024/04/05 05:09:43;;;;;;;;;;;;;;;;;;5092842;28;19951;-63
2024/04/05 05:12:08;;;;;;;;;;;;;;;;;;5092805;28;20360;-64
2024/04/05 05:14:33;;;;;;;;;;;;;;;;;;5093062;28;19912;-64
2024/04/05 05:16:58;;;;;;;;;;;;;;;;;;5093019;28;19912;-64
2024/04/05 05:19:24;;;;;;;;;;;;;;;;;;5077170;28;20300;-64
2024/04/05 05:21:49;;;;;;;;;;;;;;;;;;5091071;28;19908;-64
2024/04/05 05:24:14;;;;;;;;;;;;;;;;;;5092303;28;19914;-64
2024/04/05 05:26:39;;;;;;;;;;;;;;;;;;5092255;28;20372;-64
2024/04/05 05:29:04;;;;;;;;;;;;;;;;;;5092673;28;19912;-64
2024/04/05 05:31:29;;;;;;;;;;;;;;;;;;5092425;28;19908;-64
2024/04/05 05:33:55;;;;;;;;;;;;;;;;;;5092294;28;19913;-64
2024/04/05 05:36:20;;;;;;;;;;;;;;;;;;5092030;28;19943;-64
2024/04/05 05:38:45;;;;;;;;;;;;;;;;;;5092343;28;19919;-64
2024/04/05 05:41:10;;;;;;;;;;;;;;;;;;5091935;28;19970;-64
2024/04/05 05:43:35;;;;;;;;;;;;;;;;;;5092072;28;19919;-64
2024/04/05 05:46:00;;;;;;;;;;;;;;;;;;5091671;28;19915;-64
2024/04/05 05:48:25;;;;;;;;;;;;;;;;;;5074310;28;19908;-64
2024/04/05 05:50:51;;;;;;;;;;;;;;;;;;5084843;28;19959;-63
2024/04/05 05:53:16;;;;;;;;;;;;;;;;;;5090975;28;19916;-64
2024/04/05 05:55:41;;;;;;;;;;;;;;;;;;5091843;28;19935;-64
2024/04/05 05:58:06;;;;;;;;;;;;;;;;;;5092264;28;19960;-64
2024/04/05 06:00:32;;;;;;;;;;;;;;;;;;5092211;28;19908;-64
2024/04/05 06:02:57;;;;;;;;;;;;;;;;;;5091656;28;19912;-64
2024/04/05 06:05:23;;;;;;;;;;;;;;;;;;5090209;28;19955;-64
2024/04/05 06:07:48;;;;;;;;;;;;;;;;;;5091816;28;19912;-64
2024/04/05 06:10:13;;;;;;;;;;;;;;;;;;5091793;28;19912;-64
2024/04/05 06:12:41;;;;;;;;;;;;;;;;;;5091352;28;19994;-64
2024/04/05 06:15:07;;;;;;;;;;;;;;;;;;5091771;28;19908;-65
2024/04/05 06:17:35;;;;;;;;;;;;;;;;;;5091432;28;19918;-64
2024/04/05 06:20:00;;;;;;;;;;;;;;;;;;5091428;28;20394;-64
2024/04/05 06:22:25;;;;;;;;;;;;;;;;;;5084496;28;19912;-65
2024/04/05 06:24:51;;;;;;;;;;;;;;;;;;5091582;28;19908;-64
2024/04/05 06:27:16;;;;;;;;;;;;;;;;;;5091442;28;19968;-64
2024/04/05 06:29:41;;;;;;;;;;;;;;;;;;5091290;28;19912;-65
2024/04/05 06:32:06;;;;;;;;;;;;;;;;;;5091895;28;19912;-64
2024/04/05 06:34:31;;;;;;;;;;;;;;;;;;5091503;28;19992;-65
2024/04/05 06:36:56;;;;;;;;;;;;;;;;;;5091359;28;20029;-62
2024/04/05 06:39:21;;;;;;;;;;;;;;;;;;5091625;28;19938;-62
2024/04/05 06:41:48;;;;;;;;;;;;;;;;;;5089123;28;19935;-63
2024/04/05 06:44:15;;;;;;;;;;;;;;;;;;5091751;28;20284;-63
2024/04/05 06:46:40;;;;;;;;;;;;;;;;;;5091400;28;20273;-61
2024/04/05 06:49:05;;;;;;;;;;;;;;;;;;5091533;28;20338;-62
2024/04/05 06:51:30;;;;;;;;;;;;;;;;;;5089784;28;19916;-62
2024/04/05 06:53:55;;;;;;;;;;;;;;;;;;5091233;28;20006;-62
2024/04/05 06:56:20;;;;;;;;;;;;;;;;;;5090710;28;19959;-63
2024/04/05 06:58:45;;;;;;;;;;;;;;;;;;5091088;28;19993;-62
2024/04/05 07:01:10;;;;;;;;;;;;;;;;;;5091094;28;19961;-61
2024/04/05 07:03:36;;;;;;;;;;;;;;;;;;5092490;28;19919;-62
2024/04/05 07:06:02;;;;;;;;;;;;;;;;;;5095543;28;19924;-62
2024/04/05 07:08:29;;;;;;;;;;;;;;;;;;5094924;28;19916;-62
2024/04/05 07:10:54;;;;;;;;;;;;;;;;;;5094776;28;19923;-62
2024/04/05 07:13:20;;;;;;;;;;;;;;;;;;5095143;28;19908;-61
2024/04/05 07:15:45;;;;;;;;;;;;;;;;;;5092682;28;19908;-61
2024/04/05 07:18:10;;;;;;;;;;;;;;;;;;5076824;28;19919;-62
2024/04/05 07:20:35;;;;;;;;;;;;;;;;;;5075071;28;20003;-61
2024/04/05 07:23:00;;;;;;;;;;;;;;;;;;5090510;28;19913;-62
2024/04/05 07:25:26;;;;;;;;;;;;;;;;;;5095269;28;20575;-62
2024/04/05 07:27:53;;;;;;;;;;;;;;;;;;5094852;28;19958;-62
2024/04/05 07:30:19;;;;;;;;;;;;;;;;;;5094074;28;20390;-62
2024/04/05 07:32:44;;;;;;;;;;;;;;;;;;5094803;28;19908;-62
2024/04/05 07:35:09;;;;;;;;;;;;;;;;;;5094959;28;19912;-62
2024/04/05 07:37:34;;;;;;;;;;;;;;;;;;5094794;28;19920;-62
2024/04/05 07:39:59;;;;;;;;;;;;;;;;;;5094811;28;19912;-62
2024/04/05 07:42:24;;;;;;;;;;;;;;;;;;5094608;28;20305;-62
2024/04/05 07:44:50;;;;;;;;;;;;;;;;;;5094568;28;19999;-62
2024/04/05 07:47:15;;;;;;;;;;;;;;;;;;5094925;28;19938;-64
2024/04/05 07:49:40;;;;;;;;;;;;;;;;;;5094475;28;19942;-65
2024/04/05 07:52:05;;;;;;;;;;;;;;;;;;5094667;28;20296;-65
2024/04/05 07:54:30;;;;;;;;;;;;;;;;;;5089377;28;19909;-64
2024/04/05 07:56:55;;;;;;;;;;;;;;;;;;5082085;28;19943;-65
2024/04/05 07:59:20;;;;;;;;;;;;;;;;;;5094621;28;19908;-64
2024/04/05 08:01:46;;;;;;;;;;;;;;;;;;5086860;28;20269;-64
2024/04/05 08:04:11;;;;;;;;;;;;;;;;;;5087041;28;20008;-64
2024/04/05 08:06:36;;;;;;;;;;;;;;;;;;5094308;28;19912;-65
2024/04/05 08:09:01;;;;;;;;;;;;;;;;;;5094301;28;20284;-65
2024/04/05 08:11:26;;;;;;;;;;;;;;;;;;5094060;28;20007;-63
2024/04/05 08:13:51;;;;;;;;;;;;;;;;;;5093803;28;19908;-63
2024/04/05 08:16:17;;;;;;;;;;;;;;;;;;5094137;28;19951;-63
2024/04/05 08:18:42;;;;;;;;;;;;;;;;;;5094203;28;20214;-64
2024/04/05 08:21:07;;;;;;;;;;;;;;;;;;5094026;28;20253;-64
2024/04/05 08:23:32;;;;;;;;;;;;;;;;;;5093807;28;19912;-64
2024/04/05 08:25:57;;;;;;;;;;;;;;;;;;5093751;28;19958;-64
2024/04/05 08:28:22;;;;;;;;;;;;;;;;;;5090715;28;19919;-64
2024/04/05 08:30:47;;;;;;;;;;;;;;;;;;5093604;28;19920;-64
2024/04/05 08:33:13;;;;;;;;;;;;;;;;;;5093949;28;19968;-63
2024/04/05 08:35:38;;;;;;;;;;;;;;;;;;5093963;28;19960;-64
2024/04/05 08:38:05;;;;;;;;;;;;;;;;;;5093341;28;20249;-64
2024/04/05 08:40:30;;;;;;;;;;;;;;;;;;5093330;28;20411;-64
2024/04/05 08:42:55;;;;;;;;;;;;;;;;;;5093678;28;20360;-64
2024/04/05 08:45:20;;;;;;;;;;;;;;;;;;5094040;28;20256;-64
2024/04/05 08:47:45;;;;;;;;;;;;;;;;;;5091952;28;19995;-64
2024/04/05 08:50:14;;;;;;;;;;;;;;;;;;5093502;28;20002;-64
2024/04/05 08:52:39;;;;;;;;;;;;;;;;;;5092676;28;19912;-64
2024/04/05 08:55:06;;;;;;;;;;;;;;;;;;5091316;28;19912;-64
2024/04/05 08:57:31;;;;;;;;;;;;;;;;;;5093100;28;19918;-64
2024/04/05 08:59:56;;;;;;;;;;;;;;;;;;5093086;28;19912;-64
2024/04/05 09:02:23;;;;;;;;;;;;;;;;;;5093293;28;19944;-63
2024/04/05 09:04:48;;;;;;;;;;;;;;;;;;5092666;28;19919;-64
2024/04/05 09:07:14;;;;;;;;;;;;;;;;;;5093336;28;19912;-64
2024/04/05 09:09:46;;;;;;;;;;;;;;;;;;5093119;28;19955;-64
2024/04/05 09:12:14;;;;;;;;;;;;;;;;;;5080767;28;19913;-64
2024/04/05 09:14:39;;;;;;;;;;;;;;;;;;5092319;28;19908;-64
2024/04/05 09:17:04;;;;;;;;;;;;;;;;;;5092774;28;19957;-64
2024/04/05 09:19:30;;;;;;;;;;;;;;;;;;5092525;28;19916;-64
2024/04/05 09:21:56;;;;;;;;;;;;;;;;;;5092718;28;19943;-64
2024/04/05 09:24:21;;;;;;;;;;;;;;;;;;5090936;28;20009;-64
2024/04/05 09:26:46;;;;;;;;;;;;;;;;;;5091471;28;19919;-64
2024/04/05 09:29:14;;;;;;;;;;;;;;;;;;5092183;28;19938;-64
2024/04/05 09:31:39;;;;;;;;;;;;;;;;;;5092433;28;19916;-64
2024/04/05 09:34:04;;;;;;;;;;;;;;;;;;5092448;28;19912;-64
2024/04/05 09:36:30;;;;;;;;;;;;;;;;;;5092890;28;20023;-64
2024/04/05 09:38:55;;;;;;;;;;;;;;;;;;5092714;28;19916;-64
2024/04/05 09:41:20;;;;;;;;;;;;;;;;;;5092155;28;19928;-64
2024/04/05 09:43:46;;;;;;;;;;;;;;;;;;5092277;28;19916;-64
2024/04/05 09:46:14;;;;;;;;;;;;;;;;;;5092520;28;20415;-64
2024/04/05 09:48:39;;;;;;;;;;;;;;;;;;5092248;28;19909;-64
2024/04/05 09:51:04;;;;;;;;;;;;;;;;;;5092346;28;19912;-64
2024/04/05 09:53:30;;;;;;;;;;;;;;;;;;5089545;28;19916;-64
2024/04/05 09:55:55;;;;;;;;;;;;;;;;;;5090787;28;19908;-64
2024/04/05 09:58:20;;;;;;;;;;;;;;;;;;5092018;28;20344;-64
2024/04/05 10:00:46;;;;;;;;;;;;;;;;;;5092025;28;19991;-64
2024/04/05 10:03:11;;;;;;;;;;;;;;;;;;5092272;28;19912;-64
2024/04/05 10:05:36;;;;;;;;;;;;;;;;;;5091785;28;19919;-64
2024/04/05 10:08:01;;;;;;;;;;;;;;;;;;5090563;28;19912;-61
2024/04/05 10:10:26;;;;;;;;;;;;;;;;;;5092123;28;19919;-60
2024/04/05 10:12:52;;;;;;;;;;;;;;;;;;5087418;28;19915;-60
2024/04/05 10:15:18;;;;;;;;;;;;;;;;;;5071525;28;19998;-60
2024/04/05 10:17:43;;;;;;;;;;;;;;;;;;5071528;28;19952;-60
2024/04/05 10:20:08;;;;;;;;;;;;;;;;;;5074015;28;19993;-61
2024/04/05 10:22:33;;;;;;;;;;;;;;;;;;5089699;28;19969;-60
2024/04/05 10:24:58;;;;;;;;;;;;;;;;;;5091187;28;19919;-61
2024/04/05 10:27:23;;;;;;;;;;;;;;;;;;5091282;28;19912;-60
2024/04/05 10:29:48;;;;;;;;;;;;;;;;;;5091654;28;19952;-60
2024/04/05 10:32:14;;;;;;;;;;;;;;;;;;5091894;28;20268;-60
2024/04/05 10:34:39;;;;;;;;;;;;;;;;;;5091675;28;20253;-60
2024/04/05 10:37:04;;;;;;;;;;;;;;;;;;5091355;28;20003;-60
2024/04/05 10:39:29;;;;;;;;;;;;;;;;;;5091927;28;19916;-62
2024/04/05 10:41:54;;;;;;;;;;;;;;;;;;5091198;28;20392;-61
2024/04/05 10:44:19;;;;;;;;;;;;;;;;;;5090091;28;20232;-61
2024/04/05 10:46:50;;;;;;;;;;;;;;;;;;5091581;28;20326;-61
2024/04/05 10:49:16;;;;;;;;;;;;;;;;;;5091221;28;19912;-61
2024/04/05 10:51:41;;;;;;;;;;;;;;;;;;5089742;28;19908;-60
2024/04/05 10:54:06;;;;;;;;;;;;;;;;;;5091271;28;19909;-61
2024/04/05 10:56:31;;;;;;;;;;;;;;;;;;5091053;28;19947;-61
2024/04/05 10:58:56;;;;;;;;;;;;;;;;;;5091128;28;19912;-61
2024/04/05 11:01:21;;;;;;;;;;;;;;;;;;5091120;28;19916;-61
2024/04/05 11:03:46;;;;;;;;;;;;;;;;;;5091120;28;19912;-60
2024/04/05 11:06:11;;;;;;;;;;;;;;;;;;5091327;28;19912;-60
2024/04/05 11:08:37;;;;;;;;;;;;;;;;;;5091081;28;20391;-61
2024/04/05 11:11:02;;;;;;;;;;;;;;;;;;5090759;28;19922;-61
2024/04/05 11:13:27;;;;;;;;;;;;;;;;;;5090910;28;19958;-60
2024/04/05 11:15:52;;;;;;;;;;;;;;;;;;5084632;28;19966;-61
2024/04/05 11:18:17;;;;;;;;;;;;;;;;;;5073734;28;19923;-61
2024/04/05 11:20:43;;;;;;;;;;;;;;;;;;5090979;28;19912;-61
2024/04/05 11:23:08;;;;;;;;;;;;;;;;;;5074100;28;20008;-61
2024/04/05 11:25:34;;;;;;;;;;;;;;;;;;5090956;28;19959;-61
2024/04/05 11:27:59;;;;;;;;;;;;;;;;;;5090707;28;20399;-61
2024/04/05 11:30:24;;;;;;;;;;;;;;;;;;5090366;28;20383;-62
2024/04/05 11:32:49;;;;;;;;;;;;;;;;;;5090970;28;19916;-62
2024/04/05 11:35:15;;;;;;;;;;;;;;;;;;5091225;28;19919;-63
2024/04/05 11:37:40;;;;;;;;;;;;;;;;;;5090580;28;19912;-61
2024/04/05 11:40:06;;;;;;;;;;;;;;;;;;5090996;28;19924;-62
2024/04/05 11:42:31;;;;;;;;;;;;;;;;;;5090502;28;19927;-62
2024/04/05 11:44:57;;;;;;;;;;;;;;;;;;5090866;28;19992;-63
2024/04/05 11:47:22;;;;;;;;;;;;;;;;;;5090741;28;20351;-61
2024/04/05 11:49:47;;;;;;;;;;;;;;;;;;5092018;28;19962;-62
2024/04/05 11:52:12;;;;;;;;;;;;;;;;;;5092716;28;19912;-62
2024/04/05 11:54:38;;;;;;;;;;;;;;;;;;5094214;28;19908;-62
2024/04/05 11:57:04;;;;;;;;;;;;;;;;;;5094182;28;19915;-62
2024/04/05 11:59:29;;;;;;;;;;;;;;;;;;5075652;28;19912;-62
2024/04/05 12:01:54;;;;;;;;;;;;;;;;;;5091878;28;20284;-62
2024/04/05 12:04:20;;;;;;;;;;;;;;;;;;5078966;28;20315;-62
2024/04/05 12:06:46;;;;;;;;;;;;;;;;;;5073970;28;19912;-62
2024/04/05 12:09:11;;;;;;;;;;;;;;;;;;5080914;28;19916;-62
2024/04/05 12:11:36;;;;;;;;;;;;;;;;;;5094460;28;20249;-62
2024/04/05 12:14:01;;;;;;;;;;;;;;;;;;5093776;28;19912;-61
2024/04/05 12:16:26;;;;;;;;;;;;;;;;;;5094312;28;20077;-62
2024/04/05 12:18:52;;;;;;;;;;;;;;;;;;5093827;28;19908;-62
2024/04/05 12:21:17;;;;;;;;;;;;;;;;;;5086740;28;20276;-61
2024/04/05 12:23:42;;;;;;;;;;;;;;;;;;5073578;28;19912;-61
2024/04/05 12:26:09;;;;;;;;;;;;;;;;;;5073782;28;19916;-61
2024/04/05 12:28:34;;;;;;;;;;;;;;;;;;5082094;28;20368;-64
2024/04/05 12:30:59;;;;;;;;;;;;;;;;;;5093638;28;19942;-64
2024/04/05 12:33:25;;;;;;;;;;;;;;;;;;5093813;28;20406;-64
2024/04/05 12:35:50;;;;;;;;;;;;;;;;;;5093758;28;19915;-64
2024/04/05 12:38:15;;;;;;;;;;;;;;;;;;5094085;28;19912;-61
2024/04/05 12:40:45;;;;;;;;;;;;;;;;;;5080904;28;19935;-61
2024/04/05 12:43:13;;;;;;;;;;;;;;;;;;5078911;28;20403;-61
2024/04/05 12:45:38;;;;;;;;;;;;;;;;;;5083783;28;20357;-61
2024/04/05 12:48:03;;;;;;;;;;;;;;;;;;5079376;28;20439;-61
2024/04/05 12:50:28;;;;;;;;;;;;;;;;;;5082930;28;19912;-60
2024/04/05 12:52:53;;;;;;;;;;;;;;;;;;5092258;28;19912;-61
2024/04/05 12:55:18;;;;;;;;;;;;;;;;;;5092578;28;19913;-61
2024/04/05 12:57:43;;;;;;;;;;;;;;;;;;5093186;28;19909;-61
2024/04/05 13:00:14;;;;;;;;;;;;;;;;;;5090849;28;19920;-60
2024/04/05 13:02:39;;;;;;;;;;;;;;;;;;5092977;28;19908;-61
2024/04/05 13:05:05;;;;;;;;;;;;;;;;;;5092521;28;20326;-60
2024/04/05 13:07:30;;;;;;;;;;;;;;;;;;5092820;28;19939;-60
2024/04/05 13:09:55;;;;;;;;;;;;;;;;;;5092757;28;19920;-61
2024/04/05 13:12:21;;;;;;;;;;;;;;;;;;5091811;28;19916;-62
2024/04/05 13:14:46;;;;;;;;;;;;;;;;;;5092324;28;19939;-62
2024/04/05 13:17:11;;;;;;;;;;;;;;;;;;5091892;28;19908;-63
2024/04/05 13:19:37;;;;;;;;;;;;;;;;;;5092411;28;19948;-62
2024/04/05 13:22:02;;;;;;;;;;;;;;;;;;5084027;28;19920;-62
2024/04/05 13:24:28;;;;;;;;;;;;;;;;;;5086974;28;19916;-62
2024/04/05 13:26:53;;;;;;;;;;;;;;;;;;5081774;28;19994;-62
2024/04/05 13:29:18;;;;;;;;;;;;;;;;;;5081722;28;20284;-62
2024/04/05 13:31:43;;;;;;;;;;;;;;;;;;5072741;28;20309;-62
2024/04/05 13:34:09;;;;;;;;;;;;;;;;;;5072230;28;19915;-62
2024/04/05 13:36:34;;;;;;;;;;;;;;;;;;5072046;28;19919;-62
2024/04/05 13:38:59;;;;;;;;;;;;;;;;;;5074478;28;19913;-62
2024/04/05 13:41:25;;;;;;;;;;;;;;;;;;5092087;28;19928;-62
2024/04/05 13:43:50;;;;;;;;;;;;;;;;;;5092142;28;19954;-62
2024/04/05 13:46:15;;;;;;;;;;;;;;;;;;5092301;28;19918;-62
2024/04/05 13:48:41;;;;;;;;;;;;;;;;;;5092071;28;19908;-65
2024/04/05 13:51:07;;;;;;;;;;;;;;;;;;5092056;28;19920;-65
2024/04/05 13:53:38;;;;;;;;;;;;;;;;;;5073366;28;19912;-66
2024/04/05 13:56:04;;;;;;;;;;;;;;;;;;5092160;28;19912;-65
2024/04/05 13:58:29;;;;;;;;;;;;;;;;;;5073263;28;19920;-65
2024/04/05 14:00:54;;;;;;;;;;;;;;;;;;5084725;28;19923;-65
2024/04/05 14:03:20;;;;;;;;;;;;;;;;;;5080689;28;19960;-65
2024/04/05 14:05:45;;;;;;;;;;;;;;;;;;5091866;28;19912;-65
2024/04/05 14:08:10;;;;;;;;;;;;;;;;;;5088331;28;19916;-65
2024/04/05 14:10:35;;;;;;;;;;;;;;;;;;5082795;28;19924;-65
2024/04/05 14:13:01;;;;;;;;;;;;;;;;;;5081441;28;20517;-65
2024/04/05 14:15:26;;;;;;;;;;;;;;;;;;5090766;28;19923;-65
2024/04/05 14:17:51;;;;;;;;;;;;;;;;;;5085871;28;19913;-65
2024/04/05 14:20:16;;;;;;;;;;;;;;;;;;5082318;28;19908;-65
2024/04/05 14:22:41;;;;;;;;;;;;;;;;;;5085102;28;20270;-65
2024/04/05 14:25:07;;;;;;;;;;;;;;;;;;5091200;28;20339;-65
2024/04/05 14:27:33;;;;;;;;;;;;;;;;;;5091687;28;19912;-65
2024/04/05 14:29:58;;;;;;;;;;;;;;;;;;5091376;28;19943;-66
2024/04/05 14:32:23;;;;;;;;;;;;;;;;;;5091707;28;19957;-66
2024/04/05 14:34:49;;;;;;;;;;;;;;;;;;5091692;28;19958;-66
2024/04/05 14:37:14;;;;;;;;;;;;;;;;;;5091583;28;19999;-65
2024/04/05 14:39:39;;;;;;;;;;;;;;;;;;5091342;28;20367;-66
2024/04/05 14:42:04;;;;;;;;;;;;;;;;;;5091442;28;19935;-65
2024/04/05 14:44:31;;;;;;;;;;;;;;;;;;5091125;28;19912;-66
2024/04/05 14:46:56;;;;;;;;;;;;;;;;;;5091660;28;20426;-66
2024/04/05 14:49:23;;;;;;;;;;;;;;;;;;5091414;28;19962;-67
2024/04/05 14:51:48;;;;;;;;;;;;;;;;;;5089832;28;20001;-67
2024/04/05 14:54:14;;;;;;;;;;;;;;;;;;5091079;28;20071;-68
2024/04/05 14:56:39;;;;;;;;;;;;;;;;;;5091338;28;19908;-67
2024/04/05 14:59:04;;;;;;;;;;;;;;;;;;5091786;28;19915;-63
2024/04/05 15:01:29;;;;;;;;;;;;;;;;;;5091032;28;19919;-63
2024/04/05 15:03:54;;;;;;;;;;;;;;;;;;5084275;28;19913;-63
2024/04/05 15:06:19;;;;;;;;;;;;;;;;;;5072166;28;19915;-63
2024/04/05 15:08:44;;;;;;;;;;;;;;;;;;5070748;28;20323;-63
2024/04/05 15:11:09;;;;;;;;;;;;;;;;;;5071102;28;19912;-64
2024/04/05 15:13:35;;;;;;;;;;;;;;;;;;5089889;28;19912;-62
2024/04/05 15:16:00;;;;;;;;;;;;;;;;;;5079661;28;19963;-64
2024/04/05 15:18:26;;;;;;;;;;;;;;;;;;5075444;28;20356;-62
2024/04/05 15:20:52;;;;;;;;;;;;;;;;;;5090433;28;20284;-62
2024/04/05 15:23:18;;;;;;;;;;;;;;;;;;5090157;28;19951;-63
2024/04/05 15:25:43;;;;;;;;;;;;;;;;;;5093734;28;19939;-62
2024/04/05 15:28:09;;;;;;;;;;;;;;;;;;5095318;28;19950;-62
2024/04/05 15:30:34;;;;;;;;;;;;;;;;;;5089262;28;19943;-62
2024/04/05 15:32:59;;;;;;;;;;;;;;;;;;5074424;28;20626;-63
2024/04/05 15:35:24;;;;;;;;;;;;;;;;;;5074704;28;19908;-62
2024/04/05 15:37:49;;;;;;;;;;;;;;;;;;5094512;28;19959;-63
2024/04/05 15:40:15;;;;;;;;;;;;;;;;;;5094594;28;19932;-62
2024/04/05 15:42:40;;;;;;;;;;;;;;;;;;5094457;28;20010;-63
2024/04/05 15:45:05;;;;;;;;;;;;;;;;;;5094460;28;19914;-63
2024/04/05 15:47:30;;;;;;;;;;;;;;;;;;5094339;28;20008;-62
2024/04/05 15:49:55;;;;;;;;;;;;;;;;;;5094291;28;20296;-62
2024/04/05 15:52:20;;;;;;;;;;;;;;;;;;5092447;28;19908;-62
2024/04/05 15:54:45;;;;;;;;;;;;;;;;;;5094272;28;19916;-63
2024/04/05 15:57:11;;;;;;;;;;;;;;;;;;5093492;28;19920;-62
2024/04/05 15:59:36;;;;;;;;;;;;;;;;;;5094296;28;19916;-62
2024/04/05 16:02:01;;;;;;;;;;;;;;;;;;5088949;28;19912;-62
2024/04/05 16:04:26;;;;;;;;;;;;;;;;;;5074691;28;19952;-62
2024/04/05 16:06:51;;;;;;;;;;;;;;;;;;5075986;28;20301;-62
2024/04/05 16:09:16;;;;;;;;;;;;;;;;;;5089638;28;19920;-63
2024/04/05 16:11:41;;;;;;;;;;;;;;;;;;5077690;28;20652;-63
2024/04/05 16:14:06;;;;;;;;;;;;;;;;;;5085397;28;20403;-61
2024/04/05 16:16:32;;;;;;;;;;;;;;;;;;5086593;28;20279;-61
2024/04/05 16:18:57;;;;;;;;;;;;;;;;;;5093680;28;19912;-62
2024/04/05 16:21:22;;;;;;;;;;;;;;;;;;5094133;28;20347;-62
2024/04/05 16:23:49;;;;;;;;;;;;;;;;;;5094041;28;20003;-61
2024/04/05 16:26:14;;;;;;;;;;;;;;;;;;5094095;28;19908;-62
2024/04/05 16:28:39;;;;;;;;;;;;;;;;;;5093278;28;19908;-61
2024/04/05 16:31:04;;;;;;;;;;;;;;;;;;5085754;28;19913;-62
2024/04/05 16:33:30;;;;;;;;;;;;;;;;;;5093494;28;19908;-62